KLM1717 EHAM-VOMM
Flight info
| Callsign | KLM1717 |
|---|---|
| Flight time | N/A |
| Altitude | 29000 |
| Route | EDUPO Z739 MISGO DCT DOJOH DCT DODEN DCT NEGIX DCT DINKU DCT BESNI DCT ALUTU DCT AKIMA DCT STEIN DCT TEGRI/N0490F310 DCT LUGEB DCT UDROS UM859 KARDE UL851 TBN UR317 REBLO M11 LUSAL N199 BAKUV N701 LARGI/N0488F330 B701 KRS A240 INRAK B449 DOLOS B475 RUBAD A846 RANAH L750 ZB G202 RK P628 IBANI Q23 RINTO RINTO2F |
| Aircraft | B77L/H-SDE1E2E3FGHIJ2J3J4J5M1RWXY/LB1D1 |
Departure
| Time | 2026-05-05 09:47 |
|---|---|
| Airport | Amsterdam Airport Schiphol (EHAM) |
Arrival
| Time | N/A |
|---|---|
| Airport | Chennai International Airport (VOMM) |
| Time | Latitude | Longitude | Altitude | Speed | Heading |
|---|---|---|---|---|---|
| 2026-05-05 09:16 | 52.32517 | 4.74726 | 1 ft | 0 kts | 138° |
| 2026-05-05 09:29 | 52.32528 | 4.74710 | -26 ft | 4 kts | 139° |
| 2026-05-05 09:29 | 52.32549 | 4.74682 | 6 ft | 4 kts | 142° |
| 2026-05-05 09:29 | 52.32570 | 4.74655 | 3 ft | 4 kts | 144° |
| 2026-05-05 09:29 | 52.32592 | 4.74630 | 3 ft | 4 kts | 146° |
| 2026-05-05 09:30 | 52.32614 | 4.74606 | 3 ft | 4 kts | 148° |
| 2026-05-05 09:30 | 52.32638 | 4.74583 | 2 ft | 4 kts | 150° |
| 2026-05-05 09:30 | 52.32661 | 4.74562 | 3 ft | 4 kts | 153° |
| 2026-05-05 09:30 | 52.32685 | 4.74542 | 3 ft | 4 kts | 156° |
| 2026-05-05 09:31 | 52.32710 | 4.74525 | 3 ft | 4 kts | 159° |
| 2026-05-05 09:31 | 52.32736 | 4.74511 | 4 ft | 4 kts | 163° |
| 2026-05-05 09:31 | 52.32762 | 4.74500 | 3 ft | 4 kts | 170° |
| 2026-05-05 09:31 | 52.32788 | 4.74495 | 3 ft | 4 kts | 180° |
| 2026-05-05 09:32 | 52.32797 | 4.74495 | 4 ft | 0 kts | 183° |
| 2026-05-05 09:34 | 52.32778 | 4.74491 | 4 ft | 6 kts | 194° |
| 2026-05-05 09:34 | 52.32742 | 4.74467 | 2 ft | 6 kts | 208° |
| 2026-05-05 09:34 | 52.32712 | 4.74425 | 1 ft | 6 kts | 223° |
| 2026-05-05 09:34 | 52.32680 | 4.74363 | 1 ft | 10 kts | 239° |
| 2026-05-05 09:35 | 52.32728 | 4.74252 | 1 ft | 17 kts | 334° |
| 2026-05-05 09:35 | 52.32984 | 4.74343 | 1 ft | 6 kts | 26° |
| 2026-05-05 09:35 | 52.33017 | 4.74374 | 1 ft | 5 kts | 31° |
| 2026-05-05 09:36 | 52.33050 | 4.74406 | 1 ft | 6 kts | 27° |
| 2026-05-05 09:36 | 52.33086 | 4.74425 | 1 ft | 6 kts | 14° |
| 2026-05-05 09:36 | 52.33126 | 4.74436 | 1 ft | 6 kts | 7° |
| 2026-05-05 09:36 | 52.33169 | 4.74443 | 1 ft | 7 kts | 3° |
| 2026-05-05 09:37 | 52.33236 | 4.74449 | 1 ft | 12 kts | 1° |
| 2026-05-05 09:37 | 52.33339 | 4.74459 | 1 ft | 16 kts | 6° |
| 2026-05-05 09:37 | 52.33445 | 4.74388 | 1 ft | 19 kts | 305° |
| 2026-05-05 09:37 | 52.33472 | 4.74180 | 1 ft | 19 kts | 274° |
| 2026-05-05 09:38 | 52.33480 | 4.73968 | 1 ft | 19 kts | 272° |
| 2026-05-05 09:38 | 52.33475 | 4.73754 | 1 ft | 19 kts | 255° |
| 2026-05-05 09:38 | 52.33389 | 4.73606 | 1 ft | 19 kts | 197° |
| 2026-05-05 09:38 | 52.33257 | 4.73590 | 1 ft | 19 kts | 184° |
| 2026-05-05 09:39 | 52.33125 | 4.73582 | 1 ft | 19 kts | 184° |
| 2026-05-05 09:39 | 52.32994 | 4.73570 | 1 ft | 19 kts | 183° |
| 2026-05-05 09:39 | 52.32862 | 4.73559 | 1 ft | 19 kts | 183° |
| 2026-05-05 09:39 | 52.32730 | 4.73547 | 1 ft | 19 kts | 183° |
| 2026-05-05 09:40 | 52.32599 | 4.73536 | 1 ft | 19 kts | 183° |
| 2026-05-05 09:40 | 52.32467 | 4.73524 | 1 ft | 19 kts | 183° |
| 2026-05-05 09:40 | 52.32338 | 4.73506 | 1 ft | 19 kts | 184° |
| 2026-05-05 09:40 | 52.32267 | 4.73498 | 1 ft | 0 kts | 190° |
| 2026-05-05 09:41 | 52.32234 | 4.73494 | 1 ft | 11 kts | 183° |
| 2026-05-05 09:41 | 52.32145 | 4.73423 | 1 ft | 16 kts | 238° |
| 2026-05-05 09:41 | 52.32168 | 4.73240 | 1 ft | 20 kts | 313° |
| 2026-05-05 09:41 | 52.32299 | 4.73054 | 1 ft | 27 kts | 320° |
| 2026-05-05 09:42 | 52.32439 | 4.72860 | 1 ft | 26 kts | 320° |
| 2026-05-05 09:42 | 52.32577 | 4.72662 | 1 ft | 26 kts | 320° |
| 2026-05-05 09:42 | 52.32709 | 4.72460 | 1 ft | 26 kts | 320° |
| 2026-05-05 09:42 | 52.32820 | 4.72257 | 1 ft | 9 kts | 305° |
| 2026-05-05 09:43 | 52.32834 | 4.72155 | 1 ft | 9 kts | 274° |
| 2026-05-05 09:43 | 52.32837 | 4.72048 | 1 ft | 10 kts | 273° |
| 2026-05-05 09:43 | 52.32857 | 4.71934 | 1 ft | 12 kts | 296° |
| 2026-05-05 09:43 | 52.32920 | 4.71806 | 1 ft | 16 kts | 313° |
| 2026-05-05 09:44 | 52.32997 | 4.71672 | 1 ft | 16 kts | 309° |
| 2026-05-05 09:44 | 52.33063 | 4.71526 | 1 ft | 16 kts | 289° |
| 2026-05-05 09:44 | 52.33035 | 4.71360 | 1 ft | 16 kts | 229° |
| 2026-05-05 09:44 | 52.32952 | 4.71234 | 1 ft | 16 kts | 222° |
| 2026-05-05 09:45 | 52.32873 | 4.71102 | 1 ft | 16 kts | 235° |
| 2026-05-05 09:45 | 52.32857 | 4.71036 | 1 ft | 0 kts | 255° |
| 2026-05-05 09:45 | 52.32856 | 4.71022 | 1 ft | 5 kts | 264° |
| 2026-05-05 09:46 | 52.32883 | 4.70900 | 1 ft | 18 kts | 320° |
| 2026-05-05 09:46 | 52.32919 | 4.70887 | 1 ft | 9 kts | 2° |
| 2026-05-05 09:46 | 52.33037 | 4.70893 | -1 ft | 27 kts | 2° |
| 2026-05-05 09:46 | 52.33461 | 4.70946 | 1 ft | 100 kts | 4° |
| 2026-05-05 09:47 | 52.34408 | 4.71033 | -1 ft | 172 kts | 3° |
| 2026-05-05 09:47 | 52.35748 | 4.71331 | 261 ft | 206 kts | 13° |
| 2026-05-05 09:47 | 52.37240 | 4.71544 | 804 ft | 223 kts | 0° |
| 2026-05-05 09:47 | 52.38792 | 4.71409 | 1504 ft | 215 kts | 2° |
| 2026-05-05 09:48 | 52.40217 | 4.71492 | 2282 ft | 205 kts | 6° |
| 2026-05-05 09:48 | 52.41710 | 4.71671 | 2359 ft | 225 kts | 7° |
| 2026-05-05 09:48 | 52.43340 | 4.71863 | 2506 ft | 243 kts | 6° |
| 2026-05-05 09:48 | 52.45038 | 4.72047 | 3014 ft | 246 kts | 5° |
| 2026-05-05 09:49 | 52.46718 | 4.72222 | 3642 ft | 243 kts | 4° |
| 2026-05-05 09:49 | 52.48377 | 4.72392 | 4287 ft | 241 kts | 4° |
| 2026-05-05 09:49 | 52.50091 | 4.72574 | 4568 ft | 250 kts | 6° |
| 2026-05-05 09:49 | 52.51734 | 4.73417 | 5031 ft | 249 kts | 32° |
| 2026-05-05 09:50 | 52.53066 | 4.75330 | 5292 ft | 261 kts | 50° |
| 2026-05-05 09:50 | 52.54208 | 4.77689 | 5543 ft | 268 kts | 56° |
| 2026-05-05 09:50 | 52.54821 | 4.80593 | 5789 ft | 277 kts | 89° |
| 2026-05-05 09:50 | 52.54687 | 4.83768 | 6121 ft | 281 kts | 103° |
| 2026-05-05 09:51 | 52.53838 | 4.86586 | 6464 ft | 283 kts | 137° |
| 2026-05-05 09:51 | 52.52177 | 4.88228 | 6926 ft | 280 kts | 160° |
| 2026-05-05 09:51 | 52.50405 | 4.89626 | 7197 ft | 288 kts | 148° |
| 2026-05-05 09:51 | 52.48736 | 4.91449 | 7720 ft | 288 kts | 145° |
| 2026-05-05 09:52 | 52.47096 | 4.93368 | 8209 ft | 291 kts | 145° |
| 2026-05-05 09:52 | 52.45448 | 4.95310 | 8699 ft | 294 kts | 145° |
| 2026-05-05 09:52 | 52.43772 | 4.97277 | 9146 ft | 298 kts | 145° |
| 2026-05-05 09:52 | 52.42083 | 4.99250 | 9674 ft | 299 kts | 145° |
| 2026-05-05 09:53 | 52.40377 | 5.01235 | 10075 ft | 303 kts | 145° |
| 2026-05-05 09:53 | 52.38651 | 5.03235 | 10301 ft | 316 kts | 145° |
| 2026-05-05 09:53 | 52.36814 | 5.05360 | 10429 ft | 332 kts | 145° |
| 2026-05-05 09:53 | 52.34876 | 5.07596 | 10557 ft | 348 kts | 145° |
| 2026-05-05 09:54 | 52.32896 | 5.10020 | 10689 ft | 364 kts | 137° |
| 2026-05-05 09:54 | 52.31130 | 5.13047 | 11076 ft | 371 kts | 131° |
| 2026-05-05 09:54 | 52.29461 | 5.16303 | 11623 ft | 377 kts | 130° |
| 2026-05-05 09:54 | 52.27753 | 5.19579 | 12249 ft | 380 kts | 131° |
| 2026-05-05 09:55 | 52.26021 | 5.22782 | 12938 ft | 382 kts | 132° |
| 2026-05-05 09:55 | 52.24243 | 5.26025 | 13643 ft | 384 kts | 131° |
| 2026-05-05 09:55 | 52.22582 | 5.29464 | 14216 ft | 388 kts | 126° |
| 2026-05-05 09:55 | 52.21037 | 5.33094 | 14764 ft | 392 kts | 124° |
| 2026-05-05 09:56 | 52.19504 | 5.36791 | 15297 ft | 396 kts | 124° |
| 2026-05-05 09:56 | 52.17943 | 5.40508 | 15862 ft | 399 kts | 125° |
| 2026-05-05 09:56 | 52.16346 | 5.44242 | 16369 ft | 403 kts | 126° |
| 2026-05-05 09:56 | 52.14722 | 5.47992 | 16948 ft | 407 kts | 126° |
| 2026-05-05 09:57 | 52.13076 | 5.51762 | 17518 ft | 409 kts | 126° |
| 2026-05-05 09:57 | 52.11417 | 5.55551 | 18037 ft | 414 kts | 127° |
| 2026-05-05 09:57 | 52.09761 | 5.59329 | 18457 ft | 419 kts | 127° |
| 2026-05-05 09:57 | 52.08060 | 5.63204 | 18870 ft | 423 kts | 127° |
| 2026-05-05 09:58 | 52.06338 | 5.67116 | 19330 ft | 426 kts | 127° |
| 2026-05-05 09:58 | 52.04506 | 5.70915 | 19789 ft | 428 kts | 132° |
| 2026-05-05 09:58 | 52.02525 | 5.74554 | 20254 ft | 431 kts | 134° |
| 2026-05-05 09:58 | 52.00518 | 5.78179 | 20725 ft | 434 kts | 133° |
| 2026-05-05 09:59 | 51.98515 | 5.81869 | 21126 ft | 438 kts | 133° |
| 2026-05-05 09:59 | 51.96510 | 5.85612 | 21551 ft | 442 kts | 133° |
| 2026-05-05 09:59 | 51.94512 | 5.89340 | 21977 ft | 445 kts | 133° |
| 2026-05-05 09:59 | 51.92477 | 5.93132 | 22428 ft | 448 kts | 133° |
| 2026-05-05 10:00 | 51.90428 | 5.96942 | 22881 ft | 450 kts | 133° |
| 2026-05-05 10:00 | 51.88362 | 6.00781 | 23306 ft | 453 kts | 133° |
| 2026-05-05 10:00 | 51.86277 | 6.04643 | 23683 ft | 457 kts | 133° |
| 2026-05-05 10:00 | 51.84181 | 6.08510 | 24047 ft | 459 kts | 133° |
| 2026-05-05 10:01 | 51.82067 | 6.12380 | 24438 ft | 460 kts | 134° |
| 2026-05-05 10:01 | 51.79969 | 6.16211 | 24810 ft | 462 kts | 134° |
| 2026-05-05 10:01 | 51.77837 | 6.20102 | 25181 ft | 464 kts | 134° |
| 2026-05-05 10:01 | 51.75690 | 6.24020 | 25543 ft | 466 kts | 134° |
| 2026-05-05 10:02 | 51.73545 | 6.27936 | 25900 ft | 468 kts | 134° |
| 2026-05-05 10:02 | 51.71374 | 6.31897 | 26249 ft | 471 kts | 134° |
| 2026-05-05 10:02 | 51.69207 | 6.35849 | 26598 ft | 473 kts | 134° |
| 2026-05-05 10:02 | 51.67022 | 6.39828 | 26950 ft | 475 kts | 134° |
| 2026-05-05 10:03 | 51.64830 | 6.43809 | 27291 ft | 476 kts | 135° |
| 2026-05-05 10:03 | 51.62650 | 6.47761 | 27623 ft | 478 kts | 135° |
| 2026-05-05 10:03 | 51.60435 | 6.51768 | 27964 ft | 480 kts | 135° |
| 2026-05-05 10:03 | 51.58214 | 6.55781 | 28275 ft | 482 kts | 135° |
| 2026-05-05 10:04 | 51.56048 | 6.59689 | 28569 ft | 484 kts | 135° |
| 2026-05-05 10:04 | 51.53803 | 6.63737 | 28818 ft | 487 kts | 135° |
| 2026-05-05 10:04 | 51.49268 | 6.71892 | 28897 ft | 492 kts | 135° |
| 2026-05-05 10:05 | 51.44714 | 6.80064 | 28879 ft | 494 kts | 135° |
| 2026-05-05 10:05 | 51.40117 | 6.88232 | 28882 ft | 492 kts | 137° |
| 2026-05-05 10:06 | 51.35240 | 6.95882 | 28896 ft | 491 kts | 139° |
| 2026-05-05 10:06 | 51.30315 | 7.03432 | 28882 ft | 491 kts | 139° |
| 2026-05-05 10:07 | 51.25402 | 7.10986 | 28901 ft | 490 kts | 139° |
| 2026-05-05 10:07 | 51.20526 | 7.18493 | 28863 ft | 490 kts | 139° |
| 2026-05-05 10:08 | 51.15642 | 7.26001 | 28876 ft | 487 kts | 139° |
| 2026-05-05 10:08 | 51.10773 | 7.33457 | 28877 ft | 485 kts | 139° |
| 2026-05-05 10:09 | 51.05944 | 7.40828 | 28879 ft | 484 kts | 139° |
| 2026-05-05 10:09 | 51.01074 | 7.48237 | 28878 ft | 485 kts | 139° |
| 2026-05-05 10:10 | 50.96192 | 7.55642 | 28872 ft | 486 kts | 139° |
| 2026-05-05 10:10 | 50.91288 | 7.63060 | 28869 ft | 488 kts | 139° |
| 2026-05-05 10:11 | 50.86398 | 7.70438 | 28871 ft | 489 kts | 140° |
| 2026-05-05 10:11 | 50.81453 | 7.77859 | 28874 ft | 491 kts | 140° |
| 2026-05-05 10:12 | 50.76474 | 7.85253 | 28882 ft | 491 kts | 140° |
| 2026-05-05 10:12 | 50.71488 | 7.92637 | 28878 ft | 492 kts | 140° |
| 2026-05-05 10:13 | 50.66501 | 8.00013 | 28889 ft | 491 kts | 140° |
| 2026-05-05 10:13 | 50.61555 | 8.07309 | 28878 ft | 490 kts | 140° |
| 2026-05-05 10:14 | 50.57014 | 8.15353 | 28881 ft | 493 kts | 131° |
| 2026-05-05 10:14 | 50.52794 | 8.23823 | 28871 ft | 492 kts | 131° |
| 2026-05-05 10:15 | 50.48553 | 8.32216 | 28872 ft | 490 kts | 132° |
| 2026-05-05 10:15 | 50.44283 | 8.40566 | 28862 ft | 490 kts | 132° |
| 2026-05-05 10:16 | 50.40014 | 8.48888 | 28860 ft | 489 kts | 132° |
| 2026-05-05 10:16 | 50.35656 | 8.56928 | 28859 ft | 487 kts | 136° |
| 2026-05-05 10:17 | 50.31015 | 8.64655 | 28867 ft | 486 kts | 136° |
| 2026-05-05 10:17 | 50.26375 | 8.72339 | 28858 ft | 486 kts | 136° |
| 2026-05-05 10:18 | 50.21779 | 8.79972 | 28860 ft | 485 kts | 136° |
| 2026-05-05 10:18 | 50.17156 | 8.87653 | 28850 ft | 485 kts | 136° |
| 2026-05-05 10:19 | 50.12531 | 8.95316 | 28863 ft | 485 kts | 136° |
| 2026-05-05 10:19 | 50.07911 | 9.02947 | 28862 ft | 484 kts | 136° |
| 2026-05-05 10:20 | 50.03286 | 9.10562 | 28862 ft | 484 kts | 137° |
| 2026-05-05 10:20 | 49.98689 | 9.18107 | 28865 ft | 484 kts | 137° |
| 2026-05-05 10:21 | 49.94059 | 9.25684 | 28857 ft | 483 kts | 137° |
| 2026-05-05 10:21 | 49.89431 | 9.33237 | 28865 ft | 483 kts | 137° |
| 2026-05-05 10:22 | 49.84794 | 9.40780 | 28858 ft | 483 kts | 137° |
| 2026-05-05 10:22 | 49.80194 | 9.48242 | 28857 ft | 482 kts | 137° |
| 2026-05-05 10:23 | 49.75550 | 9.55751 | 28860 ft | 483 kts | 137° |
| 2026-05-05 10:23 | 49.70901 | 9.63248 | 28857 ft | 483 kts | 137° |
| 2026-05-05 10:24 | 49.66270 | 9.70695 | 28861 ft | 484 kts | 137° |
| 2026-05-05 10:24 | 49.61595 | 9.78186 | 28858 ft | 485 kts | 137° |
| 2026-05-05 10:25 | 49.56913 | 9.85670 | 28846 ft | 486 kts | 137° |
| 2026-05-05 10:25 | 49.52216 | 9.93156 | 28850 ft | 486 kts | 137° |
| 2026-05-05 10:26 | 49.47513 | 10.00630 | 28859 ft | 486 kts | 137° |
| 2026-05-05 10:26 | 49.42831 | 10.08048 | 28860 ft | 486 kts | 137° |
| 2026-05-05 10:27 | 49.38121 | 10.15488 | 28864 ft | 486 kts | 137° |
| 2026-05-05 10:27 | 49.33414 | 10.22903 | 28850 ft | 485 kts | 137° |
| 2026-05-05 10:28 | 49.28700 | 10.30309 | 28849 ft | 485 kts | 137° |
| 2026-05-05 10:28 | 49.23980 | 10.37704 | 28862 ft | 485 kts | 137° |
| 2026-05-05 10:29 | 49.19223 | 10.44926 | 28867 ft | 485 kts | 139° |
| 2026-05-05 10:29 | 49.14367 | 10.52087 | 28860 ft | 485 kts | 139° |
| 2026-05-05 10:30 | 49.09508 | 10.59251 | 28861 ft | 485 kts | 139° |
| 2026-05-05 10:30 | 49.04659 | 10.66415 | 28860 ft | 486 kts | 139° |
| 2026-05-05 10:31 | 48.99834 | 10.73534 | 28858 ft | 486 kts | 139° |
| 2026-05-05 10:31 | 48.94974 | 10.80683 | 28848 ft | 486 kts | 139° |
| 2026-05-05 10:32 | 48.90105 | 10.87825 | 28840 ft | 486 kts | 139° |
| 2026-05-05 10:32 | 48.85231 | 10.94953 | 28836 ft | 486 kts | 139° |
| 2026-05-05 10:33 | 48.80387 | 11.02018 | 28831 ft | 487 kts | 139° |
| 2026-05-05 10:33 | 48.75499 | 11.09129 | 28826 ft | 487 kts | 139° |
| 2026-05-05 10:34 | 48.70604 | 11.16231 | 28825 ft | 487 kts | 139° |
| 2026-05-05 10:34 | 48.65967 | 11.23708 | 28819 ft | 492 kts | 127° |
| 2026-05-05 10:35 | 48.62914 | 11.33005 | 28827 ft | 499 kts | 109° |
| 2026-05-05 10:35 | 48.61467 | 11.41575 | 28841 ft | 501 kts | 106° |
| 2026-05-05 10:36 | 48.59811 | 11.51814 | 28828 ft | 502 kts | 107° |
| 2026-05-05 10:36 | 48.58079 | 11.62042 | 28821 ft | 503 kts | 107° |
| 2026-05-05 10:37 | 48.56299 | 11.72276 | 28831 ft | 504 kts | 107° |
| 2026-05-05 10:37 | 48.54520 | 11.82423 | 28829 ft | 505 kts | 107° |
| 2026-05-05 10:38 | 48.52713 | 11.92710 | 28825 ft | 506 kts | 107° |
| 2026-05-05 10:38 | 48.50910 | 12.02928 | 28829 ft | 505 kts | 107° |
| 2026-05-05 10:39 | 48.49333 | 12.13260 | 28824 ft | 507 kts | 100° |
| 2026-05-05 10:39 | 48.48653 | 12.23783 | 28831 ft | 508 kts | 97° |
| 2026-05-05 10:40 | 48.48023 | 12.34394 | 28818 ft | 508 kts | 97° |
| 2026-05-05 10:40 | 48.47346 | 12.44991 | 28817 ft | 509 kts | 97° |
| 2026-05-05 10:41 | 48.46635 | 12.55601 | 28800 ft | 509 kts | 97° |
| 2026-05-05 10:41 | 48.45912 | 12.66209 | 28825 ft | 509 kts | 97° |
| 2026-05-05 10:42 | 48.44811 | 12.82049 | 28813 ft | 510 kts | 98° |
| 2026-05-05 10:43 | 48.44064 | 12.92664 | 28815 ft | 510 kts | 98° |
| 2026-05-05 10:43 | 48.43308 | 13.03281 | 28811 ft | 510 kts | 98° |
| 2026-05-05 10:44 | 48.42557 | 13.13813 | 28819 ft | 509 kts | 98° |
| 2026-05-05 10:44 | 48.41778 | 13.24404 | 28812 ft | 508 kts | 99° |
| 2026-05-05 10:45 | 48.40228 | 13.34722 | 28812 ft | 505 kts | 110° |
| 2026-05-05 10:45 | 48.37597 | 13.44468 | 28804 ft | 502 kts | 115° |
| 2026-05-05 10:46 | 48.34809 | 13.54108 | 28815 ft | 502 kts | 115° |
| 2026-05-05 10:46 | 48.32057 | 13.63714 | 29102 ft | 504 kts | 115° |
| 2026-05-05 10:46 | 48.30686 | 13.68526 | 29619 ft | 501 kts | 115° |
| 2026-05-05 10:47 | 48.29320 | 13.73337 | 30040 ft | 500 kts | 115° |
| 2026-05-05 10:47 | 48.27950 | 13.78147 | 30335 ft | 500 kts | 115° |
| 2026-05-05 10:47 | 48.26583 | 13.82946 | 30656 ft | 500 kts | 115° |
| 2026-05-05 10:47 | 48.25213 | 13.87744 | 30758 ft | 502 kts | 115° |
| 2026-05-05 10:48 | 48.23840 | 13.92546 | 30787 ft | 501 kts | 115° |
| 2026-05-05 10:48 | 48.21113 | 14.02035 | 30821 ft | 494 kts | 115° |
| 2026-05-05 10:49 | 48.18397 | 14.11445 | 30832 ft | 492 kts | 115° |
| 2026-05-05 10:49 | 48.15663 | 14.20873 | 30828 ft | 493 kts | 115° |
| 2026-05-05 10:50 | 48.12923 | 14.30296 | 30833 ft | 494 kts | 115° |
| 2026-05-05 10:50 | 48.10167 | 14.39734 | 30822 ft | 495 kts | 115° |
| 2026-05-05 10:51 | 48.07420 | 14.49109 | 30813 ft | 496 kts | 115° |
| 2026-05-05 10:51 | 48.04639 | 14.58565 | 30799 ft | 497 kts | 115° |
| 2026-05-05 10:52 | 48.01851 | 14.68002 | 30799 ft | 497 kts | 115° |
| 2026-05-05 10:52 | 47.99052 | 14.77444 | 30809 ft | 498 kts | 115° |
| 2026-05-05 10:53 | 47.96259 | 14.86830 | 30800 ft | 498 kts | 115° |
| 2026-05-05 10:53 | 47.93439 | 14.96270 | 30822 ft | 498 kts | 115° |
| 2026-05-05 10:54 | 47.90608 | 15.05703 | 30814 ft | 498 kts | 115° |
| 2026-05-05 10:54 | 47.87774 | 15.15121 | 30820 ft | 499 kts | 116° |
| 2026-05-05 10:55 | 47.84945 | 15.24486 | 30828 ft | 499 kts | 116° |
| 2026-05-05 10:55 | 47.82085 | 15.33914 | 30835 ft | 500 kts | 116° |
| 2026-05-05 10:56 | 47.81134 | 15.37041 | 30837 ft | 501 kts | 116° |